createdAt,value
2022-12-28T00:00:04.588Z,932.53
2022-12-28T00:01:04.478Z,932.59
2022-12-28T00:02:04.553Z,932.61
2022-12-28T00:03:04.539Z,932.58
2022-12-28T00:04:04.526Z,932.59
2022-12-28T00:05:04.545Z,932.55
2022-12-28T00:06:04.594Z,932.55
2022-12-28T00:07:04.585Z,932.56
2022-12-28T00:08:04.602Z,932.54
2022-12-28T00:09:04.618Z,932.52
2022-12-28T00:10:04.627Z,932.53
2022-12-28T00:11:08.367Z,932.50
2022-12-28T00:12:04.678Z,932.51
2022-12-28T00:13:04.698Z,932.54
2022-12-28T00:14:04.717Z,932.51
2022-12-28T00:15:04.740Z,932.49
2022-12-28T00:16:04.758Z,932.50
2022-12-28T00:17:04.758Z,932.52
2022-12-28T00:18:04.761Z,932.53
2022-12-28T00:19:04.802Z,932.53
2022-12-28T00:20:04.803Z,932.54
2022-12-28T00:21:04.822Z,932.54
2022-12-28T00:22:04.853Z,932.54
2022-12-28T00:23:04.851Z,932.52
2022-12-28T00:24:04.875Z,932.51
2022-12-28T00:25:04.884Z,932.47
2022-12-28T00:26:04.895Z,932.48
2022-12-28T00:27:04.920Z,932.53
2022-12-28T00:28:04.929Z,932.53
2022-12-28T00:29:05.885Z,932.53
2022-12-28T00:30:04.980Z,932.52
2022-12-28T00:31:05.006Z,932.54
2022-12-28T00:32:05.031Z,932.53
2022-12-28T00:33:05.009Z,932.52
2022-12-28T00:34:05.040Z,932.52
2022-12-28T00:35:05.041Z,932.53
2022-12-28T00:36:05.060Z,932.58
2022-12-28T00:37:09.378Z,932.60
2022-12-28T00:38:05.120Z,932.60
2022-12-28T00:39:05.109Z,932.63
2022-12-28T00:40:05.126Z,932.60
2022-12-28T00:41:05.144Z,932.59
2022-12-28T00:42:05.167Z,932.62
2022-12-28T00:43:05.185Z,932.68
2022-12-28T00:44:05.191Z,932.71
2022-12-28T00:45:05.220Z,932.76
2022-12-28T00:46:05.300Z,932.82
2022-12-28T00:47:05.246Z,932.81
2022-12-28T00:48:05.270Z,932.82
2022-12-28T00:49:05.287Z,932.82
2022-12-28T00:50:05.307Z,932.80
2022-12-28T00:51:05.315Z,932.80
2022-12-28T00:52:05.337Z,932.80
2022-12-28T00:53:05.341Z,932.85
2022-12-28T00:54:05.391Z,932.88
2022-12-28T00:55:05.390Z,932.89
2022-12-28T00:56:05.391Z,932.92
2022-12-28T00:57:05.406Z,932.92
2022-12-28T00:58:05.438Z,932.94
2022-12-28T00:59:05.452Z,932.95
2022-12-28T01:00:05.472Z,932.96
2022-12-28T01:01:05.579Z,932.96
2022-12-28T01:02:05.686Z,932.95
2022-12-28T01:03:05.564Z,932.95
2022-12-28T01:04:05.537Z,932.95
2022-12-28T01:05:05.548Z,932.97
2022-12-28T01:06:05.557Z,932.95
2022-12-28T01:07:05.581Z,932.97
2022-12-28T01:08:05.596Z,933.01
2022-12-28T01:09:05.612Z,933.00
2022-12-28T01:10:05.655Z,933.02
2022-12-28T01:11:05.647Z,933.04
2022-12-28T01:12:05.678Z,933.07
2022-12-28T01:13:05.678Z,933.04
2022-12-28T01:14:05.695Z,933.04
2022-12-28T01:15:05.707Z,933.02
2022-12-28T01:16:05.795Z,932.99
2022-12-28T01:17:05.738Z,932.96
2022-12-28T01:18:05.774Z,932.97
2022-12-28T01:19:05.780Z,932.98
2022-12-28T01:20:05.799Z,933.00
2022-12-28T01:21:05.812Z,933.01
2022-12-28T01:22:05.829Z,933.02
2022-12-28T01:23:05.837Z,933.02
2022-12-28T01:24:05.860Z,933.02
2022-12-28T01:25:05.872Z,933.03
2022-12-28T01:26:05.920Z,933.03
2022-12-28T01:27:05.903Z,932.99
2022-12-28T01:28:05.927Z,933.01
2022-12-28T01:29:05.942Z,933.03
2022-12-28T01:30:05.970Z,933.05
2022-12-28T01:31:05.974Z,933.02
2022-12-28T01:32:06.059Z,933.01
2022-12-28T01:33:06.013Z,932.99
2022-12-28T01:34:06.017Z,933.00
2022-12-28T01:35:06.043Z,933.02
2022-12-28T01:36:06.060Z,933.03
2022-12-28T01:37:06.068Z,932.99
2022-12-28T01:38:06.097Z,933.01
2022-12-28T01:39:06.120Z,932.97
2022-12-28T01:40:06.119Z,932.94
2022-12-28T01:41:06.135Z,932.94
2022-12-28T01:42:06.177Z,932.90
2022-12-28T01:43:06.175Z,932.89
2022-12-28T01:44:06.185Z,932.88
2022-12-28T01:45:06.201Z,932.83
2022-12-28T01:46:06.273Z,932.78
2022-12-28T01:47:06.233Z,932.79
2022-12-28T01:48:06.251Z,932.77
2022-12-28T01:49:06.280Z,932.77
2022-12-28T01:50:06.301Z,932.78
2022-12-28T01:51:06.305Z,932.76
2022-12-28T01:52:06.316Z,932.76
2022-12-28T01:53:06.344Z,932.76
2022-12-28T01:54:06.356Z,932.75
2022-12-28T01:55:06.373Z,932.75
2022-12-28T01:56:06.387Z,932.78
2022-12-28T01:57:06.410Z,932.78
2022-12-28T01:58:06.456Z,932.78
2022-12-28T01:59:06.448Z,932.77
2022-12-28T02:00:06.465Z,932.72
2022-12-28T02:01:06.568Z,932.68
2022-12-28T02:02:06.731Z,932.70
2022-12-28T02:03:06.520Z,932.71
2022-12-28T02:04:06.525Z,932.77
2022-12-28T02:05:06.536Z,932.81
2022-12-28T02:06:06.768Z,932.82
2022-12-28T02:07:06.568Z,932.80
2022-12-28T02:08:06.579Z,932.79
2022-12-28T02:09:06.608Z,932.76
2022-12-28T02:10:44.188Z,932.76
2022-12-28T02:11:06.628Z,932.71
2022-12-28T02:12:06.650Z,932.68
2022-12-28T02:13:06.760Z,932.67
2022-12-28T02:14:06.707Z,932.66
2022-12-28T02:15:06.705Z,932.62
2022-12-28T02:16:06.722Z,932.61
2022-12-28T02:17:06.831Z,932.59
2022-12-28T02:18:06.755Z,932.57
2022-12-28T02:19:06.762Z,932.55
2022-12-28T02:20:06.786Z,932.55
2022-12-28T02:21:06.802Z,932.52
2022-12-28T02:22:06.817Z,932.51
2022-12-28T02:23:06.825Z,932.51
2022-12-28T02:24:06.870Z,932.49
2022-12-28T02:25:13.115Z,932.50
2022-12-28T02:26:06.882Z,932.47
2022-12-28T02:27:06.899Z,932.46
2022-12-28T02:28:06.913Z,932.46
2022-12-28T02:29:06.930Z,932.40
2022-12-28T02:30:07.845Z,932.43
2022-12-28T02:31:07.007Z,932.41
2022-12-28T02:32:06.976Z,932.42
2022-12-28T02:33:06.990Z,932.44
2022-12-28T02:34:07.014Z,932.42
2022-12-28T02:35:07.029Z,932.42
2022-12-28T02:36:07.048Z,932.44
2022-12-28T02:37:07.054Z,932.44
2022-12-28T02:38:07.081Z,932.43
2022-12-28T02:39:07.098Z,932.40
2022-12-28T02:40:07.104Z,932.39
2022-12-28T02:41:07.133Z,932.33
2022-12-28T02:42:07.145Z,932.28
2022-12-28T02:43:07.153Z,932.29
2022-12-28T02:44:07.173Z,932.26
2022-12-28T02:45:07.188Z,932.22
2022-12-28T02:46:07.265Z,932.20
2022-12-28T02:47:07.224Z,932.16
2022-12-28T02:48:07.251Z,932.19
2022-12-28T02:49:07.261Z,932.15
2022-12-28T02:50:07.276Z,932.12
2022-12-28T02:51:07.292Z,932.12
2022-12-28T02:52:07.317Z,932.13
2022-12-28T02:53:07.324Z,932.13
2022-12-28T02:54:07.341Z,932.13
2022-12-28T02:55:07.351Z,932.13
2022-12-28T02:56:07.395Z,932.10
2022-12-28T02:57:07.389Z,932.10
2022-12-28T02:58:07.404Z,932.09
2022-12-28T02:59:07.419Z,932.11
2022-12-28T03:00:07.440Z,932.08
2022-12-28T03:01:07.573Z,932.07
2022-12-28T03:02:07.704Z,932.09
2022-12-28T03:03:07.539Z,932.08
2022-12-28T03:04:07.506Z,932.05
2022-12-28T03:05:07.518Z,932.05
2022-12-28T03:06:07.532Z,932.04
2022-12-28T03:07:07.554Z,932.01
2022-12-28T03:08:07.563Z,931.98
2022-12-28T03:09:07.591Z,931.99
2022-12-28T03:10:07.609Z,931.96
2022-12-28T03:11:07.612Z,931.94
2022-12-28T03:12:07.641Z,931.86
2022-12-28T03:13:07.652Z,931.88
2022-12-28T03:14:07.672Z,931.89
2022-12-28T03:15:07.677Z,931.83
2022-12-28T03:16:07.758Z,931.83
2022-12-28T03:17:07.710Z,931.82
2022-12-28T03:18:07.753Z,931.80
2022-12-28T03:19:07.750Z,931.84
2022-12-28T03:20:07.779Z,931.77
2022-12-28T03:21:07.778Z,931.72
2022-12-28T03:22:07.800Z,931.70
2022-12-28T03:23:07.814Z,931.66
2022-12-28T03:24:07.823Z,931.66
2022-12-28T03:25:07.847Z,931.59
2022-12-28T03:26:07.858Z,931.58
2022-12-28T03:27:07.872Z,931.57
2022-12-28T03:28:07.919Z,931.54
2022-12-28T03:29:07.914Z,931.55
2022-12-28T03:30:07.932Z,931.51
2022-12-28T03:31:08.019Z,931.53
2022-12-28T03:32:07.962Z,931.58
2022-12-28T03:33:07.973Z,931.55
2022-12-28T03:34:08.024Z,931.54
2022-12-28T03:35:08.005Z,931.57
2022-12-28T03:36:08.032Z,931.56
2022-12-28T03:37:08.041Z,931.59
2022-12-28T03:38:08.054Z,931.55
2022-12-28T03:39:08.069Z,931.58
2022-12-28T03:40:08.094Z,931.58
2022-12-28T03:41:08.112Z,931.61
2022-12-28T03:42:08.126Z,931.65
2022-12-28T03:43:08.162Z,931.67
2022-12-28T03:44:08.161Z,931.65
2022-12-28T03:45:08.179Z,931.65
2022-12-28T03:46:08.234Z,931.61
2022-12-28T03:47:08.238Z,931.64
2022-12-28T03:48:08.254Z,931.62
2022-12-28T03:49:08.313Z,931.61
2022-12-28T03:50:08.331Z,931.63
2022-12-28T03:51:08.329Z,931.59
2022-12-28T03:52:08.296Z,931.62
2022-12-28T03:53:08.320Z,931.62
2022-12-28T03:54:08.312Z,931.59
2022-12-28T03:55:08.342Z,931.55
2022-12-28T03:56:08.427Z,931.58
2022-12-28T03:57:08.376Z,931.56
2022-12-28T03:58:08.378Z,931.53
2022-12-28T03:59:08.401Z,931.51
2022-12-28T04:00:08.410Z,931.48
2022-12-28T04:01:08.657Z,931.42
2022-12-28T04:02:08.627Z,931.41
2022-12-28T04:03:08.584Z,931.35
2022-12-28T04:04:08.483Z,931.33
2022-12-28T04:05:08.500Z,931.35
2022-12-28T04:06:08.531Z,931.31
2022-12-28T04:07:08.525Z,931.30
2022-12-28T04:08:08.551Z,931.27
2022-12-28T04:09:08.566Z,931.28
2022-12-28T04:10:08.593Z,931.28
2022-12-28T04:11:08.604Z,931.25
2022-12-28T04:12:08.614Z,931.19
2022-12-28T04:13:08.633Z,931.17
2022-12-28T04:14:11.192Z,931.18
2022-12-28T04:15:08.659Z,931.14
2022-12-28T04:16:08.764Z,931.08
2022-12-28T04:17:08.689Z,931.08
2022-12-28T04:18:08.714Z,931.10
2022-12-28T04:19:08.740Z,931.11
2022-12-28T04:20:08.745Z,931.10
2022-12-28T04:21:08.756Z,931.12
2022-12-28T04:22:08.796Z,931.10
2022-12-28T04:23:08.786Z,931.09
2022-12-28T04:24:08.806Z,931.03
2022-12-28T04:25:08.822Z,931.02
2022-12-28T04:26:08.837Z,930.98
2022-12-28T04:27:08.851Z,930.98
2022-12-28T04:28:08.868Z,930.97
2022-12-28T04:29:08.893Z,930.97
2022-12-28T04:30:08.919Z,931.00
2022-12-28T04:31:08.947Z,930.97
2022-12-28T04:32:08.935Z,930.96
2022-12-28T04:33:08.950Z,930.98
2022-12-28T04:34:08.972Z,930.99
2022-12-28T04:35:08.989Z,930.99
2022-12-28T04:36:09.006Z,931.01
2022-12-28T04:37:09.022Z,930.97
2022-12-28T04:38:09.063Z,930.98
2022-12-28T04:39:09.048Z,930.96
2022-12-28T04:40:09.068Z,930.98
2022-12-28T04:41:09.094Z,930.92
2022-12-28T04:42:09.104Z,930.94
2022-12-28T04:43:09.118Z,930.91
2022-12-28T04:44:09.128Z,930.90
2022-12-28T04:45:09.145Z,930.91
2022-12-28T04:46:09.223Z,930.90
2022-12-28T04:47:09.176Z,930.95
2022-12-28T04:48:09.201Z,930.95
2022-12-28T04:49:09.217Z,930.99
2022-12-28T04:50:09.234Z,930.99
2022-12-28T04:51:09.249Z,931.00
2022-12-28T04:52:09.261Z,931.01
2022-12-28T04:53:09.273Z,931.05
2022-12-28T04:54:09.327Z,931.06
2022-12-28T04:55:09.310Z,931.07
2022-12-28T04:56:09.325Z,931.06
2022-12-28T04:57:09.346Z,931.06
2022-12-28T04:58:09.361Z,931.02
2022-12-28T04:59:09.377Z,931.02
2022-12-28T05:00:09.393Z,931.06
2022-12-28T05:01:09.596Z,931.02
2022-12-28T05:02:09.531Z,931.01
2022-12-28T05:03:09.449Z,930.95
2022-12-28T05:04:09.455Z,930.97
2022-12-28T05:05:09.483Z,930.96
2022-12-28T05:06:09.496Z,930.92
2022-12-28T05:07:09.559Z,930.91
2022-12-28T05:08:09.550Z,930.90
2022-12-28T05:09:09.541Z,930.93
2022-12-28T05:10:09.579Z,930.90
2022-12-28T05:11:09.573Z,930.92
2022-12-28T05:12:09.585Z,930.89
2022-12-28T05:13:09.607Z,930.90
2022-12-28T05:14:09.616Z,930.87
2022-12-28T05:15:09.643Z,930.94
2022-12-28T05:16:09.684Z,930.94
2022-12-28T05:17:09.671Z,930.96
2022-12-28T05:18:09.688Z,930.99
2022-12-28T05:19:09.697Z,931.00
2022-12-28T05:20:09.728Z,931.02
2022-12-28T05:21:09.748Z,931.02
2022-12-28T05:22:09.758Z,931.01
2022-12-28T05:23:09.765Z,931.00
2022-12-28T05:24:09.785Z,931.04
2022-12-28T05:25:09.793Z,931.01
2022-12-28T05:26:09.837Z,931.03
2022-12-28T05:27:09.836Z,931.04
2022-12-28T05:28:09.841Z,931.02
2022-12-28T05:29:09.866Z,931.02
2022-12-28T05:30:09.889Z,931.00
2022-12-28T05:31:09.911Z,931.00
2022-12-28T05:32:09.914Z,931.00
2022-12-28T05:33:09.931Z,931.01
2022-12-28T05:34:09.946Z,930.96
2022-12-28T05:35:09.955Z,930.98
2022-12-28T05:36:09.980Z,930.96
2022-12-28T05:37:09.988Z,930.96
2022-12-28T05:38:10.012Z,930.96
2022-12-28T05:39:10.021Z,930.94
2022-12-28T05:40:10.050Z,930.98
2022-12-28T05:41:10.058Z,930.98
2022-12-28T05:42:10.093Z,930.99
2022-12-28T05:43:10.092Z,931.00
2022-12-28T05:44:10.110Z,931.00
2022-12-28T05:45:10.124Z,931.03
2022-12-28T05:46:10.138Z,931.00
2022-12-28T05:47:10.263Z,931.05
2022-12-28T05:48:10.168Z,931.05
2022-12-28T05:49:10.183Z,931.08
2022-12-28T05:50:10.219Z,931.05
2022-12-28T05:51:10.212Z,931.06
2022-12-28T05:52:10.236Z,931.12
2022-12-28T05:53:10.258Z,931.10
2022-12-28T05:54:10.263Z,931.15
2022-12-28T05:55:10.288Z,931.13
2022-12-28T05:56:14.405Z,931.13
2022-12-28T05:57:10.329Z,931.15
2022-12-28T05:58:10.351Z,931.14
2022-12-28T05:59:10.356Z,931.19
2022-12-28T06:00:10.366Z,931.19
2022-12-28T06:01:10.451Z,931.22
2022-12-28T06:02:10.519Z,931.22
2022-12-28T06:03:10.605Z,931.22
2022-12-28T06:04:10.424Z,931.25
2022-12-28T06:05:10.443Z,931.27
2022-12-28T06:06:10.460Z,931.29
2022-12-28T06:07:10.488Z,931.29
2022-12-28T06:08:10.489Z,931.26
2022-12-28T06:09:10.508Z,931.27
2022-12-28T06:10:10.532Z,931.28
2022-12-28T06:11:10.561Z,931.29
2022-12-28T06:12:10.559Z,931.26
2022-12-28T06:13:10.577Z,931.27
2022-12-28T06:14:10.612Z,931.30
2022-12-28T06:15:10.624Z,931.27
2022-12-28T06:16:10.687Z,931.24
2022-12-28T06:17:10.641Z,931.23
2022-12-28T06:18:10.660Z,931.25
2022-12-28T06:19:10.666Z,931.22
2022-12-28T06:20:10.696Z,931.24
2022-12-28T06:21:10.696Z,931.20
2022-12-28T06:22:10.723Z,931.21
2022-12-28T06:23:10.728Z,931.18
2022-12-28T06:24:10.749Z,931.20
2022-12-28T06:25:10.760Z,931.16
2022-12-28T06:26:10.785Z,931.18
2022-12-28T06:27:10.793Z,931.16
2022-12-28T06:28:10.817Z,931.14
2022-12-28T06:29:10.837Z,931.11
2022-12-28T06:30:10.877Z,931.10
2022-12-28T06:31:10.865Z,931.12
2022-12-28T06:32:10.952Z,931.08
2022-12-28T06:33:10.898Z,931.05
2022-12-28T06:34:10.908Z,931.05
2022-12-28T06:35:10.924Z,931.06
2022-12-28T06:36:16.087Z,931.06
2022-12-28T06:37:10.954Z,931.04
2022-12-28T06:38:10.973Z,931.07
2022-12-28T06:39:10.990Z,931.03
2022-12-28T06:40:11.021Z,931.03
2022-12-28T06:41:13.771Z,931.03
2022-12-28T06:42:11.052Z,931.04
2022-12-28T06:43:11.059Z,931.03
2022-12-28T06:44:11.091Z,931.01
2022-12-28T06:45:11.091Z,931.04
2022-12-28T06:46:11.223Z,931.01
2022-12-28T06:47:11.123Z,931.05
2022-12-28T06:48:11.142Z,931.08
2022-12-28T06:49:11.148Z,931.08
2022-12-28T06:50:11.173Z,931.08
2022-12-28T06:51:11.181Z,931.08
2022-12-28T06:52:11.206Z,931.10
2022-12-28T06:53:11.218Z,931.11
2022-12-28T06:54:11.233Z,931.08
2022-12-28T06:55:11.243Z,931.18
2022-12-28T06:56:11.277Z,931.10
2022-12-28T06:57:11.288Z,931.16
2022-12-28T06:58:11.295Z,931.17
2022-12-28T06:59:11.316Z,931.14
2022-12-28T07:00:11.332Z,931.15
2022-12-28T07:01:11.433Z,931.21
2022-12-28T07:02:11.628Z,931.24
2022-12-28T07:03:11.464Z,931.18
2022-12-28T07:04:11.410Z,931.17
2022-12-28T07:05:11.406Z,931.19
2022-12-28T07:06:11.419Z,931.25
2022-12-28T07:07:11.444Z,931.22
2022-12-28T07:08:12.847Z,931.23
2022-12-28T07:09:11.470Z,931.20
2022-12-28T07:10:11.485Z,931.24
2022-12-28T07:11:11.508Z,931.20
2022-12-28T07:12:11.526Z,931.19
2022-12-28T07:13:11.535Z,931.21
2022-12-28T07:14:11.549Z,931.17
2022-12-28T07:15:11.572Z,931.18
2022-12-28T07:16:11.702Z,931.17
2022-12-28T07:17:11.596Z,931.18
2022-12-28T07:18:11.650Z,931.21
2022-12-28T07:19:11.656Z,931.17
2022-12-28T07:20:11.645Z,931.17
2022-12-28T07:21:11.669Z,931.17
2022-12-28T07:22:11.682Z,931.15
2022-12-28T07:23:11.800Z,931.13
2022-12-28T07:24:11.716Z,931.11
2022-12-28T07:25:11.730Z,931.13
2022-12-28T07:26:11.746Z,931.11
2022-12-28T07:27:11.767Z,931.17
2022-12-28T07:28:11.779Z,931.16
2022-12-28T07:29:11.989Z,931.18
2022-12-28T07:30:11.811Z,931.23
2022-12-28T07:31:11.873Z,931.19
2022-12-28T07:32:11.843Z,931.25
2022-12-28T07:33:11.853Z,931.24
2022-12-28T07:34:11.896Z,931.27
2022-12-28T07:35:11.885Z,931.27
2022-12-28T07:36:11.900Z,931.33
2022-12-28T07:37:11.923Z,931.33
2022-12-28T07:38:15.348Z,931.35
2022-12-28T07:39:11.946Z,931.41
2022-12-28T07:40:11.972Z,931.39
2022-12-28T07:41:11.984Z,931.39
2022-12-28T07:42:12.005Z,931.36
2022-12-28T07:43:12.019Z,931.39
2022-12-28T07:44:12.027Z,931.38
2022-12-28T07:45:12.051Z,931.35
2022-12-28T07:46:12.168Z,931.35
2022-12-28T07:47:12.076Z,931.38
2022-12-28T07:48:12.092Z,931.35
2022-12-28T07:49:12.108Z,931.32
2022-12-28T07:50:12.158Z,931.33
2022-12-28T07:51:12.148Z,931.30
2022-12-28T07:52:12.156Z,931.30
2022-12-28T07:53:12.491Z,931.30
2022-12-28T07:54:12.203Z,931.31
2022-12-28T07:55:12.206Z,931.28
2022-12-28T07:56:12.227Z,931.29
2022-12-28T07:57:12.255Z,931.32
2022-12-28T07:58:12.257Z,931.35
2022-12-28T07:59:12.267Z,931.30
2022-12-28T08:00:12.298Z,931.31
2022-12-28T08:01:12.544Z,931.31
2022-12-28T08:02:12.460Z,931.31
2022-12-28T08:03:12.353Z,931.34
2022-12-28T08:04:12.366Z,931.33
2022-12-28T08:05:12.363Z,931.33
2022-12-28T08:06:12.410Z,931.33
2022-12-28T08:07:12.401Z,931.31
2022-12-28T08:08:12.415Z,931.32
2022-12-28T08:09:12.453Z,931.35
2022-12-28T08:10:12.454Z,931.38
2022-12-28T08:11:12.457Z,931.44
2022-12-28T08:12:12.481Z,931.44
2022-12-28T08:13:12.490Z,931.50
2022-12-28T08:14:12.535Z,931.56
2022-12-28T08:15:12.534Z,931.62
2022-12-28T08:16:12.620Z,931.65
2022-12-28T08:17:16.125Z,931.66
2022-12-28T08:18:12.577Z,931.62
2022-12-28T08:19:13.793Z,931.61
2022-12-28T08:20:12.604Z,931.65
2022-12-28T08:21:12.627Z,931.65
2022-12-28T08:22:12.658Z,931.65
2022-12-28T08:23:12.658Z,931.70
2022-12-28T08:24:12.672Z,931.71
2022-12-28T08:25:12.683Z,931.73
2022-12-28T08:26:12.700Z,931.74
2022-12-28T08:27:12.710Z,931.78
2022-12-28T08:28:12.751Z,931.76
2022-12-28T08:29:12.765Z,931.77
2022-12-28T08:30:12.774Z,931.77
2022-12-28T08:31:12.838Z,931.77
2022-12-28T08:32:12.802Z,931.77
2022-12-28T08:33:12.808Z,931.76
2022-12-28T08:34:12.827Z,931.74
2022-12-28T08:35:12.847Z,931.73
2022-12-28T08:36:12.859Z,931.70
2022-12-28T08:37:12.871Z,931.65
2022-12-28T08:38:12.920Z,931.62
2022-12-28T08:39:12.911Z,931.58
2022-12-28T08:40:12.921Z,931.55
2022-12-28T08:41:12.938Z,931.53
2022-12-28T08:42:12.969Z,931.54
2022-12-28T08:43:12.976Z,931.51
2022-12-28T08:44:12.990Z,931.54
2022-12-28T08:45:13.010Z,931.56
2022-12-28T08:46:13.252Z,931.59
2022-12-28T08:47:13.098Z,931.61
2022-12-28T08:48:13.049Z,931.64
2022-12-28T08:49:13.074Z,931.66
2022-12-28T08:50:14.975Z,931.70
2022-12-28T08:51:13.094Z,931.71
2022-12-28T08:52:13.111Z,931.77
2022-12-28T08:53:13.136Z,931.80
2022-12-28T08:54:13.171Z,931.84
2022-12-28T08:55:13.155Z,931.87
2022-12-28T08:56:13.205Z,931.89
2022-12-28T08:57:13.191Z,931.94
2022-12-28T08:58:13.205Z,931.93
2022-12-28T08:59:13.232Z,931.91
2022-12-28T09:00:13.264Z,931.85
2022-12-28T09:01:13.372Z,931.80
2022-12-28T09:02:13.459Z,931.78
2022-12-28T09:03:13.424Z,931.76
2022-12-28T09:04:13.314Z,931.76
2022-12-28T09:05:13.316Z,931.75
2022-12-28T09:06:13.340Z,931.76
2022-12-28T09:07:13.549Z,931.77
2022-12-28T09:08:13.362Z,931.81
2022-12-28T09:09:13.384Z,931.83
2022-12-28T09:10:14.266Z,931.93
2022-12-28T09:11:13.444Z,931.96
2022-12-28T09:12:13.425Z,932.00
2022-12-28T09:13:13.454Z,932.06
2022-12-28T09:14:20.315Z,932.05
2022-12-28T09:15:13.472Z,932.03
2022-12-28T09:16:13.520Z,931.96
2022-12-28T09:17:13.515Z,931.89
2022-12-28T09:18:13.522Z,931.92
2022-12-28T09:19:13.538Z,931.93
2022-12-28T09:20:13.561Z,931.97
2022-12-28T09:21:13.576Z,931.92
2022-12-28T09:22:13.593Z,931.91
2022-12-28T09:23:13.607Z,931.92
2022-12-28T09:24:13.627Z,931.91
2022-12-28T09:25:13.645Z,931.88
2022-12-28T09:26:13.673Z,931.88
2022-12-28T09:27:13.670Z,931.88
2022-12-28T09:28:13.679Z,931.88
2022-12-28T09:29:13.872Z,931.89
2022-12-28T09:30:13.730Z,931.95
2022-12-28T09:31:13.739Z,932.03
2022-12-28T09:32:13.750Z,932.11
2022-12-28T09:33:13.773Z,932.16
2022-12-28T09:35:13.790Z,932.25
2022-12-28T09:36:13.813Z,932.22
2022-12-28T09:37:13.830Z,932.17
2022-12-28T09:38:13.851Z,932.15
2022-12-28T09:39:14.005Z,932.16
2022-12-28T09:40:13.869Z,932.13
2022-12-28T09:41:13.901Z,932.14
2022-12-28T09:42:13.929Z,932.13
2022-12-28T09:43:13.917Z,932.21
2022-12-28T09:44:13.937Z,932.27
2022-12-28T09:45:13.968Z,932.29
2022-12-28T09:46:14.021Z,932.34
2022-12-28T09:47:13.989Z,932.36
2022-12-28T09:48:13.994Z,932.34
2022-12-28T09:49:14.019Z,932.25
2022-12-28T09:50:14.039Z,932.21
2022-12-28T09:51:14.050Z,932.11
2022-12-28T09:52:14.073Z,932.01
2022-12-28T09:53:14.109Z,931.99
2022-12-28T09:54:14.091Z,931.91
2022-12-28T09:55:14.111Z,931.85
2022-12-28T09:56:14.146Z,931.78
2022-12-28T09:57:14.148Z,931.73
2022-12-28T09:58:14.197Z,931.75
2022-12-28T09:59:14.180Z,931.71
2022-12-28T10:00:14.186Z,931.76
2022-12-28T10:01:14.330Z,931.74
2022-12-28T10:02:14.340Z,931.80
2022-12-28T10:03:14.242Z,931.80
2022-12-28T10:04:14.255Z,931.85
2022-12-28T10:05:14.265Z,931.93
2022-12-28T10:06:14.293Z,932.01
2022-12-28T10:07:14.297Z,932.10
2022-12-28T10:08:14.313Z,932.18
2022-12-28T10:09:14.331Z,932.22
2022-12-28T10:10:14.357Z,932.20
2022-12-28T10:11:14.359Z,932.10
2022-12-28T10:12:14.382Z,932.09
2022-12-28T10:13:45.512Z,932.06
2022-12-28T10:14:14.423Z,932.04
2022-12-28T10:15:14.449Z,932.02
2022-12-28T10:16:14.507Z,931.97
2022-12-28T10:17:14.456Z,931.92
2022-12-28T10:18:14.484Z,931.90
2022-12-28T10:19:14.489Z,931.83
2022-12-28T10:20:14.506Z,931.81
2022-12-28T10:21:14.520Z,931.80
2022-12-28T10:22:14.540Z,931.82
2022-12-28T10:23:14.552Z,931.84
2022-12-28T10:24:31.447Z,931.88
2022-12-28T10:25:14.582Z,931.82
2022-12-28T10:26:14.596Z,931.80
2022-12-28T10:27:14.610Z,931.82
2022-12-28T10:28:14.634Z,931.83
2022-12-28T10:29:14.641Z,931.86
2022-12-28T10:30:14.704Z,931.89
2022-12-28T10:31:14.687Z,931.96
2022-12-28T10:32:14.697Z,932.00
2022-12-28T10:33:14.705Z,931.98
2022-12-28T10:34:14.729Z,931.99
2022-12-28T10:35:14.737Z,931.94
2022-12-28T10:36:14.761Z,931.91
2022-12-28T10:38:14.784Z,931.85
2022-12-28T10:39:14.801Z,931.81
2022-12-28T10:40:14.829Z,931.81
2022-12-28T10:41:14.839Z,931.83
2022-12-28T10:42:14.853Z,931.89
2022-12-28T10:43:14.872Z,931.89
2022-12-28T10:44:38.905Z,931.91
2022-12-28T10:45:14.902Z,931.92
2022-12-28T10:46:15.036Z,931.91
2022-12-28T10:47:14.924Z,931.89
2022-12-28T10:48:14.949Z,931.86
2022-12-28T10:49:15.825Z,931.89
2022-12-28T10:51:14.995Z,931.84
2022-12-28T10:52:15.013Z,931.85
2022-12-28T10:53:15.018Z,931.90
2022-12-28T10:54:15.034Z,931.94
2022-12-28T10:55:15.051Z,931.97
2022-12-28T10:56:15.070Z,932.07
2022-12-28T10:57:15.090Z,932.08
2022-12-28T10:58:32.850Z,932.07
2022-12-28T10:59:15.145Z,932.04
2022-12-28T11:00:15.135Z,931.99
2022-12-28T11:01:15.349Z,931.99
2022-12-28T11:02:15.427Z,931.91
2022-12-28T11:03:15.236Z,931.90
2022-12-28T11:03:20.627Z,931.85
2022-12-28T11:04:15.191Z,931.90
2022-12-28T11:05:15.206Z,931.89
2022-12-28T11:06:15.245Z,931.90
2022-12-28T11:07:15.246Z,931.92
2022-12-28T11:08:15.261Z,931.89
2022-12-28T11:09:15.284Z,931.88
2022-12-28T11:10:15.294Z,931.84
2022-12-28T11:11:15.302Z,931.82
2022-12-28T11:12:15.323Z,931.80
2022-12-28T11:13:21.489Z,931.82
2022-12-28T11:14:15.358Z,931.90
2022-12-28T11:15:15.373Z,931.90
2022-12-28T11:16:15.451Z,931.91
2022-12-28T11:17:15.399Z,931.89
2022-12-28T11:18:15.453Z,931.87
2022-12-28T11:19:15.423Z,931.81
2022-12-28T11:20:15.495Z,931.77
2022-12-28T11:21:15.463Z,931.69
2022-12-28T11:22:15.480Z,931.67
2022-12-28T11:23:15.504Z,931.58
2022-12-28T11:24:15.511Z,931.58
2022-12-28T11:25:15.526Z,931.55
2022-12-28T11:26:15.536Z,931.55
2022-12-28T11:27:15.565Z,931.59
2022-12-28T11:28:15.574Z,931.64
2022-12-28T11:29:15.589Z,931.65
2022-12-28T11:30:17.647Z,931.66
2022-12-28T11:31:15.742Z,931.69
2022-12-28T11:32:15.628Z,931.71
2022-12-28T11:33:15.647Z,931.74
2022-12-28T11:34:15.690Z,931.70
2022-12-28T11:35:15.674Z,931.63
2022-12-28T11:36:15.698Z,931.62
2022-12-28T11:37:15.723Z,931.61
2022-12-28T11:38:15.722Z,931.66
2022-12-28T11:39:15.740Z,931.64
2022-12-28T11:40:15.753Z,931.66
2022-12-28T11:41:15.805Z,931.72
2022-12-28T11:43:15.808Z,931.72
2022-12-28T11:44:15.826Z,931.75
2022-12-28T11:45:15.865Z,931.79
2022-12-28T11:46:15.944Z,931.82
2022-12-28T11:47:15.869Z,931.86
2022-12-28T11:48:15.886Z,931.85
2022-12-28T11:49:15.900Z,931.88
2022-12-28T11:50:15.926Z,931.88
2022-12-28T11:51:15.941Z,931.86
2022-12-28T11:52:15.948Z,931.89
2022-12-28T11:53:15.958Z,931.90
2022-12-28T11:54:15.981Z,931.92
2022-12-28T11:55:15.999Z,931.91
2022-12-28T11:56:16.010Z,931.91
2022-12-28T11:57:16.027Z,931.87
2022-12-28T11:58:16.044Z,931.82
2022-12-28T11:59:16.055Z,931.80
2022-12-28T12:00:21.857Z,931.72
2022-12-28T12:01:16.153Z,931.70
2022-12-28T12:02:16.155Z,931.59
2022-12-28T12:03:16.136Z,931.57
2022-12-28T12:04:16.128Z,931.53
2022-12-28T12:05:16.151Z,931.53
2022-12-28T12:06:16.188Z,931.53
2022-12-28T12:07:16.186Z,931.55
2022-12-28T12:08:16.793Z,931.58
2022-12-28T12:09:16.206Z,931.64
2022-12-28T12:10:16.229Z,931.61
2022-12-28T12:11:16.236Z,931.64
2022-12-28T12:12:18.081Z,931.62
2022-12-28T12:13:16.268Z,931.58
2022-12-28T12:14:16.291Z,931.60
2022-12-28T12:15:16.308Z,931.60
2022-12-28T12:16:16.358Z,931.56
2022-12-28T12:17:16.332Z,931.63
2022-12-28T12:18:16.354Z,931.58
2022-12-28T12:19:16.362Z,931.60
2022-12-28T12:20:16.385Z,931.54
2022-12-28T12:21:16.439Z,931.58
2022-12-28T12:22:16.427Z,931.61
2022-12-28T12:23:16.424Z,931.65
2022-12-28T12:24:16.440Z,931.72
2022-12-28T12:25:16.462Z,931.75
2022-12-28T12:26:16.478Z,931.82
2022-12-28T12:27:16.504Z,931.81
2022-12-28T12:28:16.510Z,931.81
2022-12-28T12:29:16.527Z,931.78
2022-12-28T12:30:16.543Z,931.77
2022-12-28T12:31:16.643Z,931.76